sensor_id;sensor_type;location;lat;lon;timestamp;temperature;humidity
70826;SHT31;58446;41.490;22.098;2023-01-24T00:00:11;10.78;84.47
70826;SHT31;58446;41.490;22.098;2023-01-24T00:02:37;10.87;84.42
70826;SHT31;58446;41.490;22.098;2023-01-24T00:05:04;10.68;84.65
70826;SHT31;58446;41.490;22.098;2023-01-24T00:07:30;10.61;84.92
70826;SHT31;58446;41.490;22.098;2023-01-24T00:09:56;10.74;84.59
70826;SHT31;58446;41.490;22.098;2023-01-24T00:12:22;10.81;84.48
70826;SHT31;58446;41.490;22.098;2023-01-24T00:14:48;10.78;84.67
70826;SHT31;58446;41.490;22.098;2023-01-24T00:17:13;10.95;84.19
70826;SHT31;58446;41.490;22.098;2023-01-24T00:19:39;10.96;84.08
70826;SHT31;58446;41.490;22.098;2023-01-24T00:22:05;10.87;84.15
70826;SHT31;58446;41.490;22.098;2023-01-24T00:24:32;10.69;84.67
70826;SHT31;58446;41.490;22.098;2023-01-24T00:27:01;10.36;85.56
70826;SHT31;58446;41.490;22.098;2023-01-24T00:29:27;10.58;85.37
70826;SHT31;58446;41.490;22.098;2023-01-24T00:31:53;10.61;84.97
70826;SHT31;58446;41.490;22.098;2023-01-24T00:34:18;10.65;84.93
70826;SHT31;58446;41.490;22.098;2023-01-24T00:36:44;10.60;84.89
70826;SHT31;58446;41.490;22.098;2023-01-24T00:39:10;10.75;84.86
70826;SHT31;58446;41.490;22.098;2023-01-24T00:41:36;10.58;84.95
70826;SHT31;58446;41.490;22.098;2023-01-24T00:44:02;10.72;84.90
70826;SHT31;58446;41.490;22.098;2023-01-24T00:46:27;10.82;84.41
70826;SHT31;58446;41.490;22.098;2023-01-24T00:48:53;10.91;84.11
70826;SHT31;58446;41.490;22.098;2023-01-24T00:51:19;10.98;83.74
70826;SHT31;58446;41.490;22.098;2023-01-24T00:53:44;11.02;83.68
70826;SHT31;58446;41.490;22.098;2023-01-24T00:56:10;11.05;83.64
70826;SHT31;58446;41.490;22.098;2023-01-24T00:58:36;10.98;83.71
70826;SHT31;58446;41.490;22.098;2023-01-24T01:01:01;10.96;83.73
70826;SHT31;58446;41.490;22.098;2023-01-24T01:03:30;10.95;83.60
70826;SHT31;58446;41.490;22.098;2023-01-24T01:06:00;10.99;83.54
70826;SHT31;58446;41.490;22.098;2023-01-24T01:08:26;11.04;83.42
70826;SHT31;58446;41.490;22.098;2023-01-24T01:10:52;11.06;83.18
70826;SHT31;58446;41.490;22.098;2023-01-24T01:13:18;11.05;83.12
70826;SHT31;58446;41.490;22.098;2023-01-24T01:15:44;11.05;83.07
70826;SHT31;58446;41.490;22.098;2023-01-24T01:18:09;10.91;83.29
70826;SHT31;58446;41.490;22.098;2023-01-24T01:20:36;10.48;83.50
70826;SHT31;58446;41.490;22.098;2023-01-24T01:23:01;10.16;84.69
70826;SHT31;58446;41.490;22.098;2023-01-24T01:25:28;10.33;85.49
70826;SHT31;58446;41.490;22.098;2023-01-24T01:27:54;10.54;85.19
70826;SHT31;58446;41.490;22.098;2023-01-24T01:30:20;10.20;85.05
70826;SHT31;58446;41.490;22.098;2023-01-24T01:32:46;10.00;85.56
70826;SHT31;58446;41.490;22.098;2023-01-24T01:35:12;10.14;85.70
70826;SHT31;58446;41.490;22.098;2023-01-24T01:37:38;10.10;85.83
70826;SHT31;58446;41.490;22.098;2023-01-24T01:40:04;10.13;86.48
70826;SHT31;58446;41.490;22.098;2023-01-24T01:42:55;10.17;86.09
70826;SHT31;58446;41.490;22.098;2023-01-24T01:45:43;10.17;86.22
70826;SHT31;58446;41.490;22.098;2023-01-24T01:51:11;10.44;85.32
70826;SHT31;58446;41.490;22.098;2023-01-24T01:54:03;10.61;84.62
70826;SHT31;58446;41.490;22.098;2023-01-24T01:56:48;10.72;84.08
70826;SHT31;58446;41.490;22.098;2023-01-24T01:59:18;10.82;83.63
70826;SHT31;58446;41.490;22.098;2023-01-24T02:01:46;10.89;83.42
70826;SHT31;58446;41.490;22.098;2023-01-24T02:04:22;10.82;83.52
70826;SHT31;58446;41.490;22.098;2023-01-24T02:09:41;10.65;83.83
70826;SHT31;58446;41.490;22.098;2023-01-24T02:12:11;10.54;83.84
70826;SHT31;58446;41.490;22.098;2023-01-24T02:14:39;10.53;84.11
70826;SHT31;58446;41.490;22.098;2023-01-24T02:17:23;10.41;84.75
70826;SHT31;58446;41.490;22.098;2023-01-24T02:23:04;10.44;84.05
70826;SHT31;58446;41.490;22.098;2023-01-24T02:28:05;10.23;84.83
70826;SHT31;58446;41.490;22.098;2023-01-24T02:30:33;10.10;85.22
70826;SHT31;58446;41.490;22.098;2023-01-24T02:32:59;10.13;85.19
70826;SHT31;58446;41.490;22.098;2023-01-24T02:35:30;10.17;85.54
70826;SHT31;58446;41.490;22.098;2023-01-24T02:38:00;10.09;85.12
70826;SHT31;58446;41.490;22.098;2023-01-24T02:40:29;10.02;85.77
70826;SHT31;58446;41.490;22.098;2023-01-24T02:43:01;9.90;85.33
70826;SHT31;58446;41.490;22.098;2023-01-24T02:45:31;9.72;85.98
70826;SHT31;58446;41.490;22.098;2023-01-24T02:47:58;9.68;86.75
70826;SHT31;58446;41.490;22.098;2023-01-24T02:50:26;9.78;86.57
70826;SHT31;58446;41.490;22.098;2023-01-24T02:52:52;9.81;86.30
70826;SHT31;58446;41.490;22.098;2023-01-24T02:55:37;9.68;86.10
70826;SHT31;58446;41.490;22.098;2023-01-24T02:58:21;9.61;86.58
70826;SHT31;58446;41.490;22.098;2023-01-24T03:00:47;9.66;86.57
70826;SHT31;58446;41.490;22.098;2023-01-24T03:03:12;9.79;86.43
70826;SHT31;58446;41.490;22.098;2023-01-24T03:05:38;9.76;85.80
70826;SHT31;58446;41.490;22.098;2023-01-24T03:08:26;9.85;86.03
70826;SHT31;58446;41.490;22.098;2023-01-24T03:10:53;9.86;85.82
70826;SHT31;58446;41.490;22.098;2023-01-24T03:13:19;9.93;85.88
70826;SHT31;58446;41.490;22.098;2023-01-24T03:16:04;10.06;85.68
70826;SHT31;58446;41.490;22.098;2023-01-24T03:18:48;10.21;84.98
70826;SHT31;58446;41.490;22.098;2023-01-24T03:21:32;9.97;84.22
70826;SHT31;58446;41.490;22.098;2023-01-24T03:24:15;9.85;84.96
70826;SHT31;58446;41.490;22.098;2023-01-24T03:26:59;9.97;85.39
70826;SHT31;58446;41.490;22.098;2023-01-24T03:29:43;10.06;85.19
70826;SHT31;58446;41.490;22.098;2023-01-24T03:32:27;10.07;85.02
70826;SHT31;58446;41.490;22.098;2023-01-24T03:35:11;10.20;84.89
70826;SHT31;58446;41.490;22.098;2023-01-24T03:37:37;10.18;84.19
70826;SHT31;58446;41.490;22.098;2023-01-24T03:40:20;10.23;84.58
70826;SHT31;58446;41.490;22.098;2023-01-24T03:42:46;10.32;84.29
70826;SHT31;58446;41.490;22.098;2023-01-24T03:45:18;10.36;84.43
70826;SHT31;58446;41.490;22.098;2023-01-24T03:47:50;10.48;84.00
70826;SHT31;58446;41.490;22.098;2023-01-24T03:50:33;10.36;83.97
70826;SHT31;58446;41.490;22.098;2023-01-24T03:53:21;10.26;84.68
70826;SHT31;58446;41.490;22.098;2023-01-24T03:55:51;10.17;84.80
70826;SHT31;58446;41.490;22.098;2023-01-24T03:58:18;10.17;84.88
70826;SHT31;58446;41.490;22.098;2023-01-24T04:00:44;10.10;85.18
70826;SHT31;58446;41.490;22.098;2023-01-24T04:03:09;10.12;84.99
70826;SHT31;58446;41.490;22.098;2023-01-24T04:05:35;9.99;85.34
70826;SHT31;58446;41.490;22.098;2023-01-24T04:08:02;10.05;85.72
70826;SHT31;58446;41.490;22.098;2023-01-24T04:10:28;9.86;85.88
70826;SHT31;58446;41.490;22.098;2023-01-24T04:12:54;9.81;85.41
70826;SHT31;58446;41.490;22.098;2023-01-24T04:15:24;9.86;85.87
70826;SHT31;58446;41.490;22.098;2023-01-24T04:17:50;9.72;85.93
70826;SHT31;58446;41.490;22.098;2023-01-24T04:20:17;9.92;85.35
70826;SHT31;58446;41.490;22.098;2023-01-24T04:22:42;9.82;85.47
70826;SHT31;58446;41.490;22.098;2023-01-24T04:25:09;9.90;85.98
70826;SHT31;58446;41.490;22.098;2023-01-24T04:27:36;10.09;85.51
70826;SHT31;58446;41.490;22.098;2023-01-24T04:30:04;9.95;84.19
70826;SHT31;58446;41.490;22.098;2023-01-24T04:32:30;9.85;84.38
70826;SHT31;58446;41.490;22.098;2023-01-24T04:34:56;9.69;84.84
70826;SHT31;58446;41.490;22.098;2023-01-24T04:37:21;9.74;85.48
70826;SHT31;58446;41.490;22.098;2023-01-24T04:39:47;9.78;85.94
70826;SHT31;58446;41.490;22.098;2023-01-24T04:42:13;9.66;85.17
70826;SHT31;58446;41.490;22.098;2023-01-24T04:44:38;9.69;85.26
70826;SHT31;58446;41.490;22.098;2023-01-24T04:47:04;9.46;84.91
70826;SHT31;58446;41.490;22.098;2023-01-24T04:49:30;9.25;85.63
70826;SHT31;58446;41.490;22.098;2023-01-24T04:51:55;9.25;85.92
70826;SHT31;58446;41.490;22.098;2023-01-24T04:54:21;9.23;86.00
70826;SHT31;58446;41.490;22.098;2023-01-24T04:56:47;9.24;86.47
70826;SHT31;58446;41.490;22.098;2023-01-24T04:59:13;9.38;87.01
70826;SHT31;58446;41.490;22.098;2023-01-24T05:01:39;9.63;86.52
70826;SHT31;58446;41.490;22.098;2023-01-24T05:04:05;9.68;85.59
70826;SHT31;58446;41.490;22.098;2023-01-24T05:06:32;9.45;84.71
70826;SHT31;58446;41.490;22.098;2023-01-24T05:08:58;9.42;85.46
70826;SHT31;58446;41.490;22.098;2023-01-24T05:11:25;9.63;85.78
70826;SHT31;58446;41.490;22.098;2023-01-24T05:13:51;9.93;85.05
70826;SHT31;58446;41.490;22.098;2023-01-24T05:16:17;10.12;84.21
70826;SHT31;58446;41.490;22.098;2023-01-24T05:18:43;10.12;83.31
70826;SHT31;58446;41.490;22.098;2023-01-24T05:21:13;10.16;83.61
70826;SHT31;58446;41.490;22.098;2023-01-24T05:23:40;9.72;82.75
70826;SHT31;58446;41.490;22.098;2023-01-24T05:26:06;9.65;83.04
70826;SHT31;58446;41.490;22.098;2023-01-24T05:28:32;9.83;84.45
70826;SHT31;58446;41.490;22.098;2023-01-24T05:31:01;9.81;83.75
70826;SHT31;58446;41.490;22.098;2023-01-24T05:33:27;9.97;84.08
70826;SHT31;58446;41.490;22.098;2023-01-24T05:36:01;10.06;83.90
70826;SHT31;58446;41.490;22.098;2023-01-24T05:38:27;10.05;83.74
70826;SHT31;58446;41.490;22.098;2023-01-24T05:40:53;10.17;83.66
70826;SHT31;58446;41.490;22.098;2023-01-24T05:43:23;10.36;82.88
70826;SHT31;58446;41.490;22.098;2023-01-24T05:45:49;10.37;82.81
70826;SHT31;58446;41.490;22.098;2023-01-24T05:48:14;10.23;82.48
70826;SHT31;58446;41.490;22.098;2023-01-24T05:50:40;10.16;82.43
70826;SHT31;58446;41.490;22.098;2023-01-24T05:53:05;10.21;82.99
70826;SHT31;58446;41.490;22.098;2023-01-24T05:55:31;10.24;83.12
70826;SHT31;58446;41.490;22.098;2023-01-24T05:58:00;10.24;82.42
70826;SHT31;58446;41.490;22.098;2023-01-24T06:00:26;10.20;83.03
70826;SHT31;58446;41.490;22.098;2023-01-24T06:02:51;10.30;82.89
70826;SHT31;58446;41.490;22.098;2023-01-24T06:05:18;10.26;82.98
70826;SHT31;58446;41.490;22.098;2023-01-24T06:07:43;10.38;82.69
70826;SHT31;58446;41.490;22.098;2023-01-24T06:10:09;10.44;82.30
70826;SHT31;58446;41.490;22.098;2023-01-24T06:12:35;10.37;82.41
70826;SHT31;58446;41.490;22.098;2023-01-24T06:15:02;10.13;82.10
70826;SHT31;58446;41.490;22.098;2023-01-24T06:17:27;9.96;83.04
70826;SHT31;58446;41.490;22.098;2023-01-24T06:19:53;10.05;83.23
70826;SHT31;58446;41.490;22.098;2023-01-24T06:22:27;9.96;83.53
70826;SHT31;58446;41.490;22.098;2023-01-24T06:24:54;9.92;83.88
70826;SHT31;58446;41.490;22.098;2023-01-24T06:27:19;9.72;83.55
70826;SHT31;58446;41.490;22.098;2023-01-24T06:29:46;9.55;84.08
70826;SHT31;58446;41.490;22.098;2023-01-24T06:32:30;9.54;84.49
70826;SHT31;58446;41.490;22.098;2023-01-24T06:37:49;9.38;84.80
70826;SHT31;58446;41.490;22.098;2023-01-24T06:40:19;9.28;85.26
70826;SHT31;58446;41.490;22.098;2023-01-24T06:42:45;9.25;85.71
70826;SHT31;58446;41.490;22.098;2023-01-24T06:45:11;9.32;85.60
70826;SHT31;58446;41.490;22.098;2023-01-24T06:47:37;9.24;85.67
70826;SHT31;58446;41.490;22.098;2023-01-24T06:50:03;9.23;85.37
70826;SHT31;58446;41.490;22.098;2023-01-24T06:52:31;9.11;84.87
70826;SHT31;58446;41.490;22.098;2023-01-24T06:54:57;9.10;85.46
70826;SHT31;58446;41.490;22.098;2023-01-24T06:57:22;9.08;85.75
70826;SHT31;58446;41.490;22.098;2023-01-24T06:59:48;9.11;86.01
70826;SHT31;58446;41.490;22.098;2023-01-24T07:02:14;9.15;84.74
70826;SHT31;58446;41.490;22.098;2023-01-24T07:04:39;9.15;84.91
70826;SHT31;58446;41.490;22.098;2023-01-24T07:07:05;9.56;85.53
70826;SHT31;58446;41.490;22.098;2023-01-24T07:09:33;10.14;84.11
70826;SHT31;58446;41.490;22.098;2023-01-24T07:11:59;10.84;81.58
70826;SHT31;58446;41.490;22.098;2023-01-24T07:14:25;11.04;77.04
70826;SHT31;58446;41.490;22.098;2023-01-24T07:16:51;11.39;77.14
70826;SHT31;58446;41.490;22.098;2023-01-24T07:19:20;11.65;78.20
70826;SHT31;58446;41.490;22.098;2023-01-24T07:21:51;11.93;76.72
70826;SHT31;58446;41.490;22.098;2023-01-24T07:24:24;12.01;75.25
70826;SHT31;58446;41.490;22.098;2023-01-24T07:26:51;11.91;77.12
70826;SHT31;58446;41.490;22.098;2023-01-24T07:29:20;11.87;77.41
70826;SHT31;58446;41.490;22.098;2023-01-24T07:31:46;12.28;76.20
70826;SHT31;58446;41.490;22.098;2023-01-24T07:34:16;12.63;75.61
70826;SHT31;58446;41.490;22.098;2023-01-24T07:36:44;12.53;75.58
70826;SHT31;58446;41.490;22.098;2023-01-24T07:39:10;12.35;75.90
70826;SHT31;58446;41.490;22.098;2023-01-24T07:41:36;12.27;76.08
70826;SHT31;58446;41.490;22.098;2023-01-24T07:44:02;12.15;76.47
70826;SHT31;58446;41.490;22.098;2023-01-24T07:46:33;11.95;77.02
70826;SHT31;58446;41.490;22.098;2023-01-24T07:48:59;11.83;77.44
70826;SHT31;58446;41.490;22.098;2023-01-24T07:51:25;11.84;77.59
70826;SHT31;58446;41.490;22.098;2023-01-24T07:53:51;11.71;77.22
70826;SHT31;58446;41.490;22.098;2023-01-24T07:56:17;11.78;75.58
70826;SHT31;58446;41.490;22.098;2023-01-24T07:58:43;11.91;77.22
70826;SHT31;58446;41.490;22.098;2023-01-24T08:01:08;11.99;77.01
70826;SHT31;58446;41.490;22.098;2023-01-24T08:03:34;11.78;77.54
70826;SHT31;58446;41.490;22.098;2023-01-24T08:06:02;11.27;75.04
70826;SHT31;58446;41.490;22.098;2023-01-24T08:08:28;11.01;76.80
70826;SHT31;58446;41.490;22.098;2023-01-24T08:10:54;10.88;77.00
70826;SHT31;58446;41.490;22.098;2023-01-24T08:13:19;10.82;77.96
70826;SHT31;58446;41.490;22.098;2023-01-24T08:15:47;11.11;76.72
70826;SHT31;58446;41.490;22.098;2023-01-24T08:18:12;11.01;78.94
70826;SHT31;58446;41.490;22.098;2023-01-24T08:20:38;10.77;77.32
70826;SHT31;58446;41.490;22.098;2023-01-24T08:23:04;10.68;77.83
70826;SHT31;58446;41.490;22.098;2023-01-24T08:25:29;10.57;77.33
70826;SHT31;58446;41.490;22.098;2023-01-24T08:27:57;10.53;78.87
70826;SHT31;58446;41.490;22.098;2023-01-24T08:30:23;10.54;78.64
70826;SHT31;58446;41.490;22.098;2023-01-24T08:32:58;10.54;78.13
70826;SHT31;58446;41.490;22.098;2023-01-24T08:35:24;10.51;78.75
70826;SHT31;58446;41.490;22.098;2023-01-24T08:37:49;10.44;77.77
70826;SHT31;58446;41.490;22.098;2023-01-24T08:40:15;10.47;79.01
70826;SHT31;58446;41.490;22.098;2023-01-24T08:42:41;10.41;78.98
70826;SHT31;58446;41.490;22.098;2023-01-24T08:45:07;10.36;78.28
70826;SHT31;58446;41.490;22.098;2023-01-24T08:47:33;10.51;79.15
70826;SHT31;58446;41.490;22.098;2023-01-24T08:49:58;10.44;78.19
70826;SHT31;58446;41.490;22.098;2023-01-24T08:52:24;10.40;78.80
70826;SHT31;58446;41.490;22.098;2023-01-24T08:54:50;10.41;77.88
70826;SHT31;58446;41.490;22.098;2023-01-24T08:57:15;10.38;78.35
70826;SHT31;58446;41.490;22.098;2023-01-24T08:59:41;10.40;78.34
70826;SHT31;58446;41.490;22.098;2023-01-24T09:02:10;10.34;79.35
70826;SHT31;58446;41.490;22.098;2023-01-24T09:04:38;10.36;79.28
70826;SHT31;58446;41.490;22.098;2023-01-24T09:07:03;10.26;79.08
70826;SHT31;58446;41.490;22.098;2023-01-24T09:09:29;10.23;78.11
70826;SHT31;58446;41.490;22.098;2023-01-24T09:11:55;10.27;79.35
70826;SHT31;58446;41.490;22.098;2023-01-24T09:14:21;10.26;79.04
70826;SHT31;58446;41.490;22.098;2023-01-24T09:16:46;10.24;78.59
70826;SHT31;58446;41.490;22.098;2023-01-24T09:19:12;10.37;79.09
70826;SHT31;58446;41.490;22.098;2023-01-24T09:21:38;10.34;78.86
70826;SHT31;58446;41.490;22.098;2023-01-24T09:24:04;10.26;79.34
70826;SHT31;58446;41.490;22.098;2023-01-24T09:26:29;10.24;79.56
70826;SHT31;58446;41.490;22.098;2023-01-24T09:28:55;10.30;79.37
70826;SHT31;58446;41.490;22.098;2023-01-24T09:31:21;10.30;78.55
70826;SHT31;58446;41.490;22.098;2023-01-24T09:33:46;10.50;79.62
70826;SHT31;58446;41.490;22.098;2023-01-24T09:36:12;10.51;78.03
70826;SHT31;58446;41.490;22.098;2023-01-24T09:38:38;10.50;78.45
70826;SHT31;58446;41.490;22.098;2023-01-24T09:43:52;10.50;77.40
70826;SHT31;58446;41.490;22.098;2023-01-24T09:46:32;10.56;78.52
70826;SHT31;58446;41.490;22.098;2023-01-24T09:51:33;10.53;78.31
70826;SHT31;58446;41.490;22.098;2023-01-24T09:54:01;10.43;77.50
70826;SHT31;58446;41.490;22.098;2023-01-24T09:56:37;10.41;78.97
70826;SHT31;58446;41.490;22.098;2023-01-24T09:59:20;10.36;77.98
70826;SHT31;58446;41.490;22.098;2023-01-24T10:01:51;10.34;77.66
70826;SHT31;58446;41.490;22.098;2023-01-24T10:04:25;10.32;78.32
70826;SHT31;58446;41.490;22.098;2023-01-24T10:10:20;10.50;77.96
70826;SHT31;58446;41.490;22.098;2023-01-24T10:15:30;10.81;77.05
70826;SHT31;58446;41.490;22.098;2023-01-24T10:18:34;10.77;76.87
70826;SHT31;58446;41.490;22.098;2023-01-24T10:23:41;10.89;75.64
70826;SHT31;58446;41.490;22.098;2023-01-24T10:32:02;11.01;77.38
70826;SHT31;58446;41.490;22.098;2023-01-24T10:34:44;11.11;76.24
70826;SHT31;58446;41.490;22.098;2023-01-24T10:37:19;11.25;75.76
70826;SHT31;58446;41.490;22.098;2023-01-24T10:39:46;11.44;76.06
70826;SHT31;58446;41.490;22.098;2023-01-24T10:42:20;11.67;75.64
70826;SHT31;58446;41.490;22.098;2023-01-24T10:44:47;11.59;74.65
70826;SHT31;58446;41.490;22.098;2023-01-24T10:50:09;11.63;75.28
70826;SHT31;58446;41.490;22.098;2023-01-24T10:52:35;11.86;75.09
70826;SHT31;58446;41.490;22.098;2023-01-24T10:55:03;11.83;73.83
70826;SHT31;58446;41.490;22.098;2023-01-24T10:57:51;11.81;73.38
70826;SHT31;58446;41.490;22.098;2023-01-24T11:00:29;11.70;73.56
70826;SHT31;58446;41.490;22.098;2023-01-24T11:02:58;11.95;74.31
70826;SHT31;58446;41.490;22.098;2023-01-24T11:05:34;11.94;72.64
70826;SHT31;58446;41.490;22.098;2023-01-24T11:08:00;11.94;74.08
70826;SHT31;58446;41.490;22.098;2023-01-24T11:10:37;12.02;73.16
70826;SHT31;58446;41.490;22.098;2023-01-24T11:15:48;11.78;74.04
70826;SHT31;58446;41.490;22.098;2023-01-24T11:18:22;11.67;73.87
70826;SHT31;58446;41.490;22.098;2023-01-24T11:21:11;11.32;74.23
70826;SHT31;58446;41.490;22.098;2023-01-24T11:23:39;11.20;75.57
70826;SHT31;58446;41.490;22.098;2023-01-24T11:26:18;10.98;75.73
70826;SHT31;58446;41.490;22.098;2023-01-24T11:28:44;11.08;76.14
70826;SHT31;58446;41.490;22.098;2023-01-24T11:31:27;10.94;76.59
70826;SHT31;58446;41.490;22.098;2023-01-24T11:34:13;10.89;76.68
70826;SHT31;58446;41.490;22.098;2023-01-24T11:45:32;10.74;76.22
70826;SHT31;58446;41.490;22.098;2023-01-24T11:48:20;10.81;76.14
70826;SHT31;58446;41.490;22.098;2023-01-24T11:50:58;10.78;75.17
70826;SHT31;58446;41.490;22.098;2023-01-24T11:53:49;10.75;75.42
70826;SHT31;58446;41.490;22.098;2023-01-24T11:56:35;10.79;74.80
70826;SHT31;58446;41.490;22.098;2023-01-24T11:59:27;10.82;75.22
70826;SHT31;58446;41.490;22.098;2023-01-24T12:01:59;10.84;75.26
70826;SHT31;58446;41.490;22.098;2023-01-24T12:04:46;10.96;75.47
70826;SHT31;58446;41.490;22.098;2023-01-24T12:12:44;10.96;73.97
70826;SHT31;58446;41.490;22.098;2023-01-24T12:15:23;10.96;74.34
70826;SHT31;58446;41.490;22.098;2023-01-24T12:18:31;10.99;74.72
70826;SHT31;58446;41.490;22.098;2023-01-24T12:21:10;11.04;74.68
70826;SHT31;58446;41.490;22.098;2023-01-24T12:26:24;10.88;73.56
70826;SHT31;58446;41.490;22.098;2023-01-24T12:29:05;10.81;75.39
70826;SHT31;58446;41.490;22.098;2023-01-24T12:31:54;10.82;75.02
70826;SHT31;58446;41.490;22.098;2023-01-24T12:42:44;10.64;76.16
70826;SHT31;58446;41.490;22.098;2023-01-24T12:45:16;10.60;76.59
70826;SHT31;58446;41.490;22.098;2023-01-24T12:51:02;10.54;76.10
70826;SHT31;58446;41.490;22.098;2023-01-24T12:53:34;10.48;77.38
70826;SHT31;58446;41.490;22.098;2023-01-24T12:56:20;10.50;76.48
70826;SHT31;58446;41.490;22.098;2023-01-24T12:58:49;10.48;77.33
70826;SHT31;58446;41.490;22.098;2023-01-24T13:01:34;10.46;76.81
70826;SHT31;58446;41.490;22.098;2023-01-24T13:04:33;10.43;76.91
70826;SHT31;58446;41.490;22.098;2023-01-24T13:07:30;10.53;77.70
70826;SHT31;58446;41.490;22.098;2023-01-24T13:12:50;10.36;78.14
70826;SHT31;58446;41.490;22.098;2023-01-24T13:20:40;10.21;79.55
70826;SHT31;58446;41.490;22.098;2023-01-24T13:29:18;10.07;80.25
70826;SHT31;58446;41.490;22.098;2023-01-24T13:32:05;10.03;80.63
70826;SHT31;58446;41.490;22.098;2023-01-24T13:34:35;10.03;81.30
70826;SHT31;58446;41.490;22.098;2023-01-24T13:37:03;9.89;81.51
70826;SHT31;58446;41.490;22.098;2023-01-24T13:39:37;9.87;82.16
70826;SHT31;58446;41.490;22.098;2023-01-24T13:44:45;9.78;82.57
70826;SHT31;58446;41.490;22.098;2023-01-24T13:55:02;9.55;84.11
70826;SHT31;58446;41.490;22.098;2023-01-24T13:57:33;9.51;84.15
70826;SHT31;58446;41.490;22.098;2023-01-24T14:07:55;9.41;84.88
70826;SHT31;58446;41.490;22.098;2023-01-24T14:10:38;9.42;84.86
70826;SHT31;58446;41.490;22.098;2023-01-24T14:13:10;9.39;84.85
70826;SHT31;58446;41.490;22.098;2023-01-24T14:15:51;9.38;85.46
70826;SHT31;58446;41.490;22.098;2023-01-24T14:21:18;9.37;85.71
70826;SHT31;58446;41.490;22.098;2023-01-24T14:23:58;9.32;85.49
70826;SHT31;58446;41.490;22.098;2023-01-24T14:26:27;9.28;85.82
70826;SHT31;58446;41.490;22.098;2023-01-24T14:29:02;9.32;86.26
70826;SHT31;58446;41.490;22.098;2023-01-24T14:31:34;9.28;85.74
70826;SHT31;58446;41.490;22.098;2023-01-24T14:34:20;9.21;86.30
70826;SHT31;58446;41.490;22.098;2023-01-24T14:36:49;9.25;86.30
70826;SHT31;58446;41.490;22.098;2023-01-24T14:39:24;9.21;86.46
70826;SHT31;58446;41.490;22.098;2023-01-24T14:42:02;9.23;86.80
70826;SHT31;58446;41.490;22.098;2023-01-24T14:44:33;9.18;86.98
70826;SHT31;58446;41.490;22.098;2023-01-24T14:52:28;9.14;86.98
70826;SHT31;58446;41.490;22.098;2023-01-24T14:55:00;9.15;87.21
70826;SHT31;58446;41.490;22.098;2023-01-24T14:57:31;9.11;87.01
70826;SHT31;58446;41.490;22.098;2023-01-24T15:00:05;9.10;86.71
70826;SHT31;58446;41.490;22.098;2023-01-24T15:02:32;9.11;86.76
70826;SHT31;58446;41.490;22.098;2023-01-24T15:04:58;9.10;86.74
70826;SHT31;58446;41.490;22.098;2023-01-24T15:07:24;9.14;86.49
70826;SHT31;58446;41.490;22.098;2023-01-24T15:09:50;9.14;86.37
70826;SHT31;58446;41.490;22.098;2023-01-24T15:12:32;9.15;85.98
70826;SHT31;58446;41.490;22.098;2023-01-24T15:15:00;9.14;86.25
70826;SHT31;58446;41.490;22.098;2023-01-24T15:17:33;9.18;86.06
70826;SHT31;58446;41.490;22.098;2023-01-24T15:20:09;9.18;86.01
70826;SHT31;58446;41.490;22.098;2023-01-24T15:22:38;9.14;85.68
70826;SHT31;58446;41.490;22.098;2023-01-24T15:25:26;9.17;85.62
70826;SHT31;58446;41.490;22.098;2023-01-24T15:27:53;9.15;85.88
70826;SHT31;58446;41.490;22.098;2023-01-24T15:30:23;9.14;85.78
70826;SHT31;58446;41.490;22.098;2023-01-24T15:32:50;9.15;85.85
70826;SHT31;58446;41.490;22.098;2023-01-24T15:36:00;9.13;85.73
70826;SHT31;58446;41.490;22.098;2023-01-24T15:38:27;9.11;85.57
70826;SHT31;58446;41.490;22.098;2023-01-24T15:41:19;9.11;85.53
70826;SHT31;58446;41.490;22.098;2023-01-24T15:43:55;9.18;85.67
70826;SHT31;58446;41.490;22.098;2023-01-24T15:46:32;9.18;85.44
70826;SHT31;58446;41.490;22.098;2023-01-24T15:52:01;9.21;85.52
70826;SHT31;58446;41.490;22.098;2023-01-24T15:54:27;9.18;85.50
70826;SHT31;58446;41.490;22.098;2023-01-24T15:56:55;9.25;85.54
70826;SHT31;58446;41.490;22.098;2023-01-24T15:59:23;9.13;84.98
70826;SHT31;58446;41.490;22.098;2023-01-24T16:01:49;9.08;85.32
70826;SHT31;58446;41.490;22.098;2023-01-24T16:04:19;9.11;85.41
70826;SHT31;58446;41.490;22.098;2023-01-24T16:06:46;9.10;85.54
70826;SHT31;58446;41.490;22.098;2023-01-24T16:09:12;9.07;86.11
70826;SHT31;58446;41.490;22.098;2023-01-24T16:11:39;9.18;85.65
70826;SHT31;58446;41.490;22.098;2023-01-24T16:14:07;9.24;85.85
70826;SHT31;58446;41.490;22.098;2023-01-24T16:16:35;9.32;85.62
70826;SHT31;58446;41.490;22.098;2023-01-24T16:19:01;9.28;84.99
70826;SHT31;58446;41.490;22.098;2023-01-24T16:21:27;9.18;85.27
70826;SHT31;58446;41.490;22.098;2023-01-24T16:23:53;9.10;85.17
70826;SHT31;58446;41.490;22.098;2023-01-24T16:26:23;9.10;85.29
70826;SHT31;58446;41.490;22.098;2023-01-24T16:28:50;9.17;85.56
70826;SHT31;58446;41.490;22.098;2023-01-24T16:31:16;9.14;85.05
70826;SHT31;58446;41.490;22.098;2023-01-24T16:33:42;9.10;85.07
70826;SHT31;58446;41.490;22.098;2023-01-24T16:36:11;9.11;85.23
70826;SHT31;58446;41.490;22.098;2023-01-24T16:38:38;9.07;85.15
70826;SHT31;58446;41.490;22.098;2023-01-24T16:41:04;8.99;85.46
70826;SHT31;58446;41.490;22.098;2023-01-24T16:43:29;8.93;85.81
70826;SHT31;58446;41.490;22.098;2023-01-24T16:45:55;9.03;85.57
70826;SHT31;58446;41.490;22.098;2023-01-24T16:48:21;9.10;85.34
70826;SHT31;58446;41.490;22.098;2023-01-24T16:50:46;9.04;85.28
70826;SHT31;58446;41.490;22.098;2023-01-24T16:53:13;9.04;85.26
70826;SHT31;58446;41.490;22.098;2023-01-24T16:55:39;8.99;85.40
70826;SHT31;58446;41.490;22.098;2023-01-24T16:58:08;8.91;85.82
70826;SHT31;58446;41.490;22.098;2023-01-24T17:00:34;8.96;85.65
70826;SHT31;58446;41.490;22.098;2023-01-24T17:03:00;8.96;85.74
70826;SHT31;58446;41.490;22.098;2023-01-24T17:05:27;8.97;85.60
70826;SHT31;58446;41.490;22.098;2023-01-24T17:07:54;8.91;85.58
70826;SHT31;58446;41.490;22.098;2023-01-24T17:10:20;8.86;85.65
70826;SHT31;58446;41.490;22.098;2023-01-24T17:12:46;8.83;85.77
70826;SHT31;58446;41.490;22.098;2023-01-24T17:15:12;8.84;85.91
70826;SHT31;58446;41.490;22.098;2023-01-24T17:17:38;8.86;85.90
70826;SHT31;58446;41.490;22.098;2023-01-24T17:20:09;8.88;85.75
70826;SHT31;58446;41.490;22.098;2023-01-24T17:22:36;8.90;85.97
70826;SHT31;58446;41.490;22.098;2023-01-24T17:25:02;8.90;85.78
70826;SHT31;58446;41.490;22.098;2023-01-24T17:27:28;8.91;85.70
70826;SHT31;58446;41.490;22.098;2023-01-24T17:29:55;9.00;85.67
70826;SHT31;58446;41.490;22.098;2023-01-24T17:32:21;8.88;85.49